Hauptseite
METAR-TAF:

METAR-TAF

Flughäfen :

Flughafen Mogadischu

Mogadischu, Somalia

Breite: 02-02N, Länge: 045-21E, Höhe: 9 m

Beobachtung

Neuester Wetterbericht von vor 1 Stunde und 7 Minuten, um 11:00 UTC
Wind 15 kt aus Ost
Temperatur 31°C
Luftfeuchtigkeit 63%
Luftdruck 1006 hPa
Sichtweite 10 km oder mehr
Aufgelockert bewölkt in der Höhe von 2600 ft, Towering cumulus.

METAR: HCMM 171100Z 10015KT 9999 SCT026TCU 31/23 Q1006

Zeit: 15:07 (12:07 UTC)


TAF: fehlend

Wetterbeobachtungen und Prognosen von mehr als 4000 Flughäfen (METAR und TAF Bericht).

Die verfügbaren Stationen werden durch gelbe und rote Markierungen auf der Karte dargestellt.

Führen Sie die Maus auf sie, um den Namen der Station zu sehen.

Darauf klicken, um die Beobachtung von Wetterbeobachtungen und Prognosen zu sehen.

Um die Karte zu ändern : klicken Sie auf den grünen Tasten mit einem schwarzen Kreuz Zum Vergrößern, auf den grünen Button mit einem Gedankenstrich zu verkleinern, oder auf die grünen Pfeile für benachbarte Karten.


METAR-TAF: